Main page
METAR-TAF:

METAR-TAF

Airports :

Cascais Municipal Aerodrome

Cascais, Portugal

latitude: 38-43-32N, longitude: 009-21-19W, elevation: 99 m

Current weather observation

The report was made 1 hour and 18 minutes ago, at 20:00 UTC
Wind 24 kt from the North
Temperature 19°C
Humidity 78%
Pressure 1013 hPa
Visibility 10 km or more
Few clouds at a height of 1600 ft

METAR: LPCS 282000Z 35024KT 9999 FEW016 19/15 Q1013

Time: 22:18 (21:18 UTC)

Forecast

The report was made 7 hours and 18 minutes ago, at 14:00 UTC
Forecast valid from 28 at 15 UTC to 28 at 24 UTC
Wind 20 kt from the North
Visibility 10 km or more
Few clouds at a height of 1500 ft
Temporary
from 28 at 15 UTC to 28 at 24 UTC
Wind 25 kt from the North with gusts up to 37 kt

TAF: LPCS 281400Z 2815/2824 35020KT 9999 FEW015 TEMPO 2815/2824 35025G37KT

Weather observations and forecasts of more than 4000 airports (METAR and TAF reports).

The available stations are represented by yellow and red dots on the map.

Hover mouse over dot to see the name of the station.

Then click to see weather observations and forecasts.

To change the map : click on the green buttons with a black cross to zoom in, on the green button with a dash to zoom out, or on the green arrows for adjacent maps.


METAR-TAF: